Detroit, Michigan
Traffic Map
Current Weather Conditions
Detroit, Michigan
Broken Clouds
Broken Clouds
75°
Feels Like: 75°
Wind Chill: 75° Ceiling: 26000
Heat Index: 75° Visibility: 15mi
Dew Point: 61° Wind: 12mph
Humidity: 61% Direction: 40° (NE)
Pressure: 29.92in Gusts: 0mph
Raw Report DataCYQG 290200Z 04010KT 15SM SCT080 BKN260 24/16 A2992 RMK AC3CI4 SLP130 DENSITY ALT 1700FT
Traffic Incident Summary
Active as of:
Severity:
Category:
InformationThere was an issue retrieving the traffic information for this location. Please try a different location or try again shortly.
Advertisements
Track Severe Weather on mobile